createdAt,value
2023-03-17T00:01:54.589Z,8.80
2023-03-17T00:04:24.995Z,8.80
2023-03-17T00:06:55.424Z,8.80
2023-03-17T00:09:23.772Z,8.80
2023-03-17T00:11:52.162Z,8.80
2023-03-17T00:14:21.378Z,8.80
2023-03-17T00:16:52.024Z,8.70
2023-03-17T00:19:30.964Z,8.80
2023-03-17T00:22:01.157Z,8.70
2023-03-17T00:24:30.248Z,8.70
2023-03-17T00:26:58.976Z,8.70
2023-03-17T00:29:28.021Z,8.80
2023-03-17T00:31:58.319Z,8.70
2023-03-17T00:34:27.267Z,8.80
2023-03-17T00:36:56.119Z,8.80
2023-03-17T00:39:27.105Z,8.80
2023-03-17T00:41:55.587Z,8.80
2023-03-17T00:44:24.139Z,8.80
2023-03-17T00:46:52.678Z,8.80
2023-03-17T00:49:24.337Z,8.80
2023-03-17T00:51:53.088Z,8.70
2023-03-17T00:54:22.275Z,8.80
2023-03-17T00:56:53.236Z,8.70
2023-03-17T00:59:28.116Z,8.70
2023-03-17T01:01:57.339Z,8.70
2023-03-17T01:04:25.794Z,8.70
2023-03-17T01:06:54.413Z,8.70
2023-03-17T01:09:27.547Z,8.70
2023-03-17T01:11:57.181Z,8.70
2023-03-17T01:14:25.826Z,8.60
2023-03-17T01:16:55.180Z,8.60
2023-03-17T01:19:23.685Z,8.50
2023-03-17T01:21:52.474Z,8.60
2023-03-17T01:24:21.083Z,8.50
2023-03-17T01:26:49.339Z,8.50
2023-03-17T01:29:18.994Z,8.50
2023-03-17T01:31:47.711Z,8.50
2023-03-17T01:34:16.003Z,8.40
2023-03-17T01:36:44.198Z,8.40
2023-03-17T01:39:12.998Z,8.40
2023-03-17T01:41:41.574Z,8.40
2023-03-17T01:44:18.752Z,8.30
2023-03-17T01:46:47.712Z,8.40
2023-03-17T01:49:24.990Z,8.30
2023-03-17T01:52:03.990Z,8.30
2023-03-17T01:54:39.945Z,8.30
2023-03-17T01:57:14.253Z,8.30
2023-03-17T01:59:50.191Z,8.20
2023-03-17T02:02:25.635Z,8.20
2023-03-17T02:04:54.281Z,8.10
2023-03-17T02:07:24.683Z,8.00
2023-03-17T02:09:53.673Z,8.10
2023-03-17T02:12:24.641Z,8.00
2023-03-17T02:14:54.687Z,8.00
2023-03-17T02:17:27.271Z,7.90
2023-03-17T02:19:56.928Z,7.90
2023-03-17T02:22:26.770Z,7.80
2023-03-17T02:24:58.349Z,7.80
2023-03-17T02:27:33.887Z,7.80
2023-03-17T02:30:02.440Z,7.80
2023-03-17T02:32:30.786Z,7.80
2023-03-17T02:34:59.072Z,7.80
2023-03-17T02:37:28.880Z,7.80
2023-03-17T02:39:57.332Z,7.70
2023-03-17T02:42:25.655Z,7.70
2023-03-17T02:44:54.253Z,7.70
2023-03-17T02:47:22.766Z,7.70
2023-03-17T02:49:52.091Z,7.60
2023-03-17T02:52:20.349Z,7.70
2023-03-17T02:54:50.217Z,7.60
2023-03-17T02:57:18.668Z,7.60
2023-03-17T02:59:46.969Z,7.50
2023-03-17T03:02:15.470Z,7.50
2023-03-17T03:04:44.201Z,7.50
2023-03-17T03:07:13.143Z,7.40
2023-03-17T03:09:42.033Z,7.40
2023-03-17T03:12:13.884Z,7.30
2023-03-17T03:14:42.562Z,7.30
2023-03-17T03:17:11.058Z,7.30
2023-03-17T03:19:39.557Z,7.30
2023-03-17T03:22:08.326Z,7.30
2023-03-17T03:24:36.883Z,7.20
2023-03-17T03:27:05.357Z,7.20
2023-03-17T03:29:35.054Z,7.20
2023-03-17T03:32:03.416Z,7.20
2023-03-17T03:34:31.949Z,7.20
2023-03-17T03:37:00.252Z,7.20
2023-03-17T03:39:28.474Z,7.20
2023-03-17T03:41:58.242Z,7.20
2023-03-17T03:44:26.724Z,7.20
2023-03-17T03:46:56.267Z,7.20
2023-03-17T03:49:24.515Z,7.20
2023-03-17T03:51:52.693Z,7.10
2023-03-17T03:54:21.078Z,7.10
2023-03-17T03:56:49.296Z,7.10
2023-03-17T03:59:17.534Z,7.10
2023-03-17T04:01:46.107Z,7.10
2023-03-17T04:04:16.263Z,7.10
2023-03-17T04:06:44.570Z,7.10
2023-03-17T04:09:13.414Z,7.10
2023-03-17T04:11:41.796Z,7.00
2023-03-17T04:14:10.110Z,7.00
2023-03-17T04:16:38.329Z,7.00
2023-03-17T04:19:06.792Z,7.00
2023-03-17T04:21:36.639Z,7.00
2023-03-17T04:24:05.352Z,7.00
2023-03-17T04:26:33.915Z,7.00
2023-03-17T04:29:02.133Z,7.00
2023-03-17T04:31:30.747Z,7.00
2023-03-17T04:33:59.067Z,7.00
2023-03-17T04:36:27.318Z,7.00
2023-03-17T04:38:56.886Z,7.00
2023-03-17T04:41:25.286Z,7.00
2023-03-17T04:43:53.496Z,6.90
2023-03-17T04:46:21.934Z,6.90
2023-03-17T04:48:50.139Z,7.00
2023-03-17T04:51:18.662Z,7.00
2023-03-17T04:53:47.075Z,6.90
2023-03-17T04:56:17.589Z,6.90
2023-03-17T04:58:46.567Z,7.00
2023-03-17T05:01:15.035Z,7.00
2023-03-17T05:03:43.431Z,6.90
2023-03-17T05:06:12.015Z,6.90
2023-03-17T05:08:40.388Z,7.00
2023-03-17T05:11:08.609Z,7.00
2023-03-17T05:13:38.311Z,7.00
2023-03-17T05:16:07.756Z,6.90
2023-03-17T05:18:37.473Z,6.90
2023-03-17T05:21:07.714Z,7.00
2023-03-17T05:23:36.083Z,7.00
2023-03-17T05:26:04.902Z,7.00
2023-03-17T05:28:33.332Z,6.90
2023-03-17T05:31:03.594Z,6.90
2023-03-17T05:33:31.964Z,6.90
2023-03-17T05:36:00.279Z,6.90
2023-03-17T05:38:28.499Z,6.90
2023-03-17T05:40:57.048Z,6.90
2023-03-17T05:43:25.606Z,6.90
2023-03-17T05:45:53.941Z,6.90
2023-03-17T05:48:23.722Z,6.90
2023-03-17T05:50:52.160Z,6.90
2023-03-17T05:53:20.846Z,6.90
2023-03-17T05:55:49.344Z,6.80
2023-03-17T05:58:17.557Z,6.90
2023-03-17T06:00:46.223Z,6.90
2023-03-17T06:03:14.792Z,6.80
2023-03-17T06:05:44.393Z,6.80
2023-03-17T06:08:13.362Z,6.80
2023-03-17T06:10:42.337Z,6.80
2023-03-17T06:13:11.081Z,6.80
2023-03-17T06:15:39.814Z,6.80
2023-03-17T06:18:09.018Z,6.80
2023-03-17T06:20:37.659Z,6.80
2023-03-17T06:23:08.030Z,6.80
2023-03-17T06:25:37.158Z,6.80
2023-03-17T06:28:06.338Z,6.90
2023-03-17T06:30:36.478Z,6.90
2023-03-17T06:33:05.945Z,6.90
2023-03-17T06:35:35.122Z,6.90
2023-03-17T06:38:03.658Z,6.90
2023-03-17T06:40:34.092Z,6.90
2023-03-17T06:43:03.009Z,7.00
2023-03-17T06:45:32.943Z,7.00
2023-03-17T06:48:01.691Z,7.00
2023-03-17T06:50:30.019Z,7.10
2023-03-17T06:52:58.291Z,7.10
2023-03-17T06:55:27.395Z,7.10
2023-03-17T06:57:57.388Z,7.20
2023-03-17T07:00:25.851Z,7.20
2023-03-17T07:02:54.330Z,7.30
2023-03-17T07:05:22.846Z,7.30
2023-03-17T07:07:51.324Z,7.40
2023-03-17T07:10:20.490Z,7.40
2023-03-17T07:12:49.059Z,7.50
2023-03-17T07:15:20.817Z,7.50
2023-03-17T07:17:49.131Z,7.60
2023-03-17T07:20:17.930Z,7.70
2023-03-17T07:22:46.518Z,7.70
2023-03-17T07:25:15.374Z,7.90
2023-03-17T07:27:43.658Z,7.90
2023-03-17T07:30:14.972Z,8.00
2023-03-17T07:32:44.773Z,8.10
2023-03-17T07:35:13.107Z,8.10
2023-03-17T07:37:41.685Z,8.20
2023-03-17T07:40:12.169Z,8.30
2023-03-17T07:42:40.463Z,8.30
2023-03-17T07:45:10.055Z,8.40
2023-03-17T07:47:39.300Z,8.50
2023-03-17T07:50:10.903Z,8.60
2023-03-17T07:52:39.544Z,8.70
2023-03-17T07:55:10.607Z,8.80
2023-03-17T07:57:39.182Z,8.90
2023-03-17T08:00:13.559Z,9.00
2023-03-17T08:02:42.170Z,9.10
2023-03-17T08:05:13.360Z,9.20
2023-03-17T08:07:41.586Z,9.30
2023-03-17T08:10:12.924Z,9.50
2023-03-17T08:12:42.621Z,9.50
2023-03-17T08:15:12.359Z,9.60
2023-03-17T08:17:40.679Z,9.70
2023-03-17T08:20:12.695Z,9.80
2023-03-17T08:22:41.469Z,10.00
2023-03-17T08:25:11.703Z,10.10
2023-03-17T08:27:40.658Z,10.20
2023-03-17T08:30:11.226Z,10.50
2023-03-17T08:32:39.485Z,10.50
2023-03-17T08:35:08.993Z,10.80
2023-03-17T08:37:38.855Z,11.00
2023-03-17T08:40:10.042Z,10.80
2023-03-17T08:42:38.587Z,10.80
2023-03-17T08:45:08.689Z,10.90
2023-03-17T08:47:37.462Z,11.00
2023-03-17T08:50:08.859Z,11.10
2023-03-17T08:52:38.661Z,11.10
2023-03-17T08:55:07.982Z,11.20
2023-03-17T08:57:36.304Z,11.30
2023-03-17T09:00:10.951Z,11.40
2023-03-17T09:02:39.371Z,11.60
2023-03-17T09:05:08.754Z,11.80
2023-03-17T09:07:38.921Z,11.90
2023-03-17T09:10:16.812Z,11.90
2023-03-17T09:12:45.086Z,12.00
2023-03-17T09:15:14.015Z,12.00
2023-03-17T09:17:43.743Z,12.20
2023-03-17T09:20:13.820Z,12.40
2023-03-17T09:22:43.439Z,12.50
2023-03-17T09:25:12.351Z,12.70
2023-03-17T09:27:40.535Z,12.80
2023-03-17T09:30:10.860Z,13.10
2023-03-17T09:32:39.109Z,13.20
2023-03-17T09:35:08.095Z,13.30
2023-03-17T09:37:36.427Z,13.40
2023-03-17T09:40:09.290Z,13.60
2023-03-17T09:42:48.072Z,13.70
2023-03-17T09:45:29.785Z,13.80
2023-03-17T09:48:46.467Z,14.00
2023-03-17T09:51:19.487Z,14.00
2023-03-17T09:53:56.125Z,14.20
2023-03-17T09:56:28.544Z,14.20
2023-03-17T09:59:01.131Z,14.30
2023-03-17T10:01:29.582Z,14.50
2023-03-17T10:03:57.874Z,14.70
2023-03-17T10:06:37.807Z,14.90
2023-03-17T10:09:26.153Z,15.00
2023-03-17T10:12:06.040Z,15.10
2023-03-17T10:14:51.474Z,15.30
2023-03-17T10:17:24.631Z,15.50
2023-03-17T10:20:00.685Z,15.80
2023-03-17T10:22:36.157Z,16.00
2023-03-17T10:25:11.909Z,16.10
2023-03-17T10:27:44.203Z,16.40
2023-03-17T10:30:17.316Z,16.40
2023-03-17T10:32:46.700Z,16.50
2023-03-17T10:35:16.897Z,16.30
2023-03-17T10:37:47.955Z,16.40
2023-03-17T10:40:25.230Z,16.60
2023-03-17T10:43:12.144Z,16.40
2023-03-17T10:45:48.748Z,16.80
2023-03-17T10:48:20.675Z,17.30
2023-03-17T10:50:49.690Z,17.50
2023-03-17T10:53:28.209Z,17.40
2023-03-17T10:56:02.437Z,17.40
2023-03-17T10:58:51.495Z,17.10
2023-03-17T11:01:24.996Z,17.10
2023-03-17T11:03:53.438Z,17.10
2023-03-17T11:06:32.633Z,17.10
2023-03-17T11:09:11.053Z,17.20
2023-03-17T11:11:47.981Z,17.30
2023-03-17T11:14:20.524Z,17.20
2023-03-17T11:16:55.605Z,17.20
2023-03-17T11:19:38.600Z,17.00
2023-03-17T11:22:12.709Z,17.20
2023-03-17T11:24:55.426Z,17.50
2023-03-17T11:27:32.443Z,17.60
2023-03-17T11:30:20.652Z,17.50
2023-03-17T11:32:57.633Z,17.30
2023-03-17T11:35:49.507Z,17.30
2023-03-17T11:38:25.989Z,17.20
2023-03-17T11:41:17.038Z,17.20
2023-03-17T11:44:14.834Z,17.30
2023-03-17T11:46:50.372Z,17.40
2023-03-17T11:49:22.876Z,17.40
2023-03-17T11:52:03.403Z,17.50
2023-03-17T11:54:45.747Z,17.50
2023-03-17T11:57:19.752Z,17.70
2023-03-17T11:59:53.674Z,17.80
2023-03-17T12:02:30.947Z,17.70
2023-03-17T12:05:05.090Z,17.60
2023-03-17T12:07:37.468Z,17.70
2023-03-17T12:10:17.684Z,17.70
2023-03-17T12:12:51.739Z,17.80
2023-03-17T12:15:30.468Z,17.90
2023-03-17T12:18:04.301Z,17.80
2023-03-17T12:20:42.284Z,17.70
2023-03-17T12:23:18.883Z,17.60
2023-03-17T12:25:57.687Z,17.60
2023-03-17T12:28:29.828Z,17.50
2023-03-17T12:31:06.820Z,17.50
2023-03-17T12:33:43.800Z,17.60
2023-03-17T12:36:17.024Z,17.50
2023-03-17T12:38:51.272Z,17.50
2023-03-17T12:41:49.765Z,17.40
2023-03-17T12:44:38.044Z,17.60
2023-03-17T12:47:22.856Z,17.50
2023-03-17T12:50:36.747Z,17.70
2023-03-17T12:53:26.702Z,17.40
2023-03-17T12:55:59.579Z,17.40
2023-03-17T12:58:34.083Z,17.50
2023-03-17T13:01:17.401Z,17.60
2023-03-17T13:04:02.645Z,17.70
2023-03-17T13:06:40.804Z,17.60
2023-03-17T13:09:48.228Z,17.60
2023-03-17T13:13:07.182Z,17.70
2023-03-17T13:16:28.009Z,17.50
2023-03-17T13:19:18.668Z,17.50
2023-03-17T13:22:13.926Z,17.60
2023-03-17T13:24:48.411Z,17.50
2023-03-17T13:27:45.152Z,17.60
2023-03-17T13:30:57.025Z,17.70
2023-03-17T13:33:32.541Z,17.80
2023-03-17T13:36:30.288Z,17.70
2023-03-17T13:39:36.303Z,17.70
2023-03-17T13:42:43.385Z,17.70
2023-03-17T13:45:37.342Z,17.60
2023-03-17T13:48:34.101Z,17.60
2023-03-17T13:51:15.629Z,17.70
2023-03-17T13:53:51.046Z,17.70
2023-03-17T13:56:26.357Z,17.80
2023-03-17T13:59:07.432Z,17.70
2023-03-17T14:01:40.836Z,17.70
2023-03-17T14:04:20.237Z,17.80
2023-03-17T14:06:52.605Z,17.70
2023-03-17T14:09:35.747Z,17.80
2023-03-17T14:12:13.608Z,17.80
2023-03-17T14:14:51.252Z,17.80
2023-03-17T14:17:24.815Z,17.80
2023-03-17T14:20:08.184Z,17.80
2023-03-17T14:22:45.018Z,17.80
2023-03-17T14:25:19.438Z,17.80
2023-03-17T14:27:52.843Z,17.80
2023-03-17T14:30:24.777Z,17.80
2023-03-17T14:33:00.004Z,17.80
2023-03-17T14:35:32.384Z,17.80
2023-03-17T14:38:02.675Z,17.80
2023-03-17T14:40:36.874Z,17.80
2023-03-17T14:43:06.845Z,17.80
2023-03-17T14:45:50.394Z,17.90
2023-03-17T14:48:26.767Z,18.00
2023-03-17T14:50:59.794Z,17.80
2023-03-17T14:53:28.065Z,17.80
2023-03-17T14:55:57.313Z,17.80
2023-03-17T14:58:31.377Z,17.80
2023-03-17T15:01:07.134Z,17.80
2023-03-17T15:03:40.564Z,17.90
2023-03-17T15:06:24.718Z,17.90
2023-03-17T15:08:53.846Z,17.80
2023-03-17T15:11:29.872Z,18.00
2023-03-17T15:14:16.361Z,18.00
2023-03-17T15:16:50.273Z,17.90
2023-03-17T15:19:27.542Z,17.90
2023-03-17T15:22:00.270Z,17.80
2023-03-17T15:24:40.527Z,17.80
2023-03-17T15:27:16.794Z,17.80
2023-03-17T15:29:48.274Z,17.80
2023-03-17T15:32:20.115Z,17.80
2023-03-17T15:34:48.854Z,17.80
2023-03-17T15:37:19.257Z,17.80
2023-03-17T15:39:48.363Z,17.80
2023-03-17T15:42:19.556Z,17.80
2023-03-17T15:44:49.265Z,17.80
2023-03-17T15:47:20.433Z,17.80
2023-03-17T15:49:50.960Z,17.80
2023-03-17T15:52:24.988Z,17.80
2023-03-17T15:54:54.552Z,17.80
2023-03-17T15:57:23.388Z,17.80
2023-03-17T15:59:53.373Z,17.70
2023-03-17T16:02:31.778Z,17.70
2023-03-17T16:05:01.428Z,17.70
2023-03-17T16:07:31.046Z,17.60
2023-03-17T16:09:59.460Z,17.50
2023-03-17T16:12:27.757Z,17.50
2023-03-17T16:14:57.407Z,17.50
2023-03-17T16:17:29.038Z,17.50
2023-03-17T16:19:58.459Z,17.40
2023-03-17T16:22:40.035Z,17.40
2023-03-17T16:25:21.453Z,17.40
2023-03-17T16:27:50.351Z,17.30
2023-03-17T16:30:23.202Z,17.30
2023-03-17T16:32:52.181Z,17.20
2023-03-17T16:35:23.690Z,17.20
2023-03-17T16:37:54.349Z,17.10
2023-03-17T16:40:26.175Z,17.10
2023-03-17T16:42:55.205Z,17.10
2023-03-17T16:45:29.738Z,17.00
2023-03-17T16:47:58.614Z,17.00
2023-03-17T16:50:31.150Z,16.90
2023-03-17T16:53:00.654Z,16.90
2023-03-17T16:55:30.608Z,16.90
2023-03-17T16:58:02.578Z,16.90
2023-03-17T17:00:33.356Z,16.80
2023-03-17T17:03:01.853Z,16.80
2023-03-17T17:05:32.212Z,16.80
2023-03-17T17:08:00.854Z,16.60
2023-03-17T17:10:32.474Z,16.60
2023-03-17T17:13:01.221Z,16.50
2023-03-17T17:15:31.840Z,16.50
2023-03-17T17:18:03.993Z,16.40
2023-03-17T17:20:35.911Z,16.30
2023-03-17T17:23:05.012Z,16.30
2023-03-17T17:25:34.209Z,16.20
2023-03-17T17:28:02.609Z,16.10
2023-03-17T17:30:33.411Z,16.10
2023-03-17T17:33:02.316Z,16.00
2023-03-17T17:35:33.437Z,15.90
2023-03-17T17:38:03.052Z,15.80
2023-03-17T17:40:32.454Z,15.80
2023-03-17T17:43:01.604Z,15.80
2023-03-17T17:45:33.838Z,15.70
2023-03-17T17:48:02.124Z,15.70
2023-03-17T17:50:31.938Z,15.60
2023-03-17T17:53:05.257Z,15.50
2023-03-17T17:55:34.767Z,15.50
2023-03-17T17:58:03.174Z,15.50
2023-03-17T18:00:33.445Z,15.50
2023-03-17T18:03:01.822Z,15.40
2023-03-17T18:05:32.228Z,15.40
2023-03-17T18:08:02.418Z,15.30
2023-03-17T18:10:31.771Z,15.30
2023-03-17T18:13:00.344Z,15.30
2023-03-17T18:15:29.126Z,15.20
2023-03-17T18:17:58.822Z,15.20
2023-03-17T18:20:27.448Z,15.20
2023-03-17T18:22:55.849Z,15.20
2023-03-17T18:25:25.503Z,15.10
2023-03-17T18:27:54.254Z,15.10
2023-03-17T18:30:26.186Z,15.10
2023-03-17T18:33:03.147Z,15.10
2023-03-17T18:35:32.105Z,15.00
2023-03-17T18:38:01.516Z,15.00
2023-03-17T18:40:31.055Z,15.00
2023-03-17T18:42:59.633Z,15.00
2023-03-17T18:45:28.265Z,15.00
2023-03-17T18:47:58.087Z,15.00
2023-03-17T18:50:26.737Z,15.00
2023-03-17T18:52:55.875Z,14.90
2023-03-17T18:55:24.246Z,14.90
2023-03-17T18:57:54.504Z,14.80
2023-03-17T19:00:25.294Z,14.80
2023-03-17T19:02:54.690Z,14.80
2023-03-17T19:05:25.641Z,14.80
2023-03-17T19:07:54.136Z,14.70
2023-03-17T19:10:22.686Z,14.70
2023-03-17T19:12:52.252Z,14.80
2023-03-17T19:15:21.655Z,14.70
2023-03-17T19:17:50.434Z,14.70
2023-03-17T19:20:20.065Z,14.60
2023-03-17T19:22:49.970Z,14.60
2023-03-17T19:25:18.459Z,14.60
2023-03-17T19:27:46.997Z,14.60
2023-03-17T19:30:16.265Z,14.50
2023-03-17T19:32:44.625Z,14.50
2023-03-17T19:35:12.980Z,14.50
2023-03-17T19:37:41.422Z,14.50
2023-03-17T19:40:13.716Z,14.50
2023-03-17T19:42:42.204Z,14.40
2023-03-17T19:45:11.690Z,14.40
2023-03-17T19:47:40.751Z,14.40
2023-03-17T19:50:11.157Z,14.40
2023-03-17T19:52:39.424Z,14.40
2023-03-17T19:55:10.728Z,14.30
2023-03-17T19:57:39.103Z,14.30
2023-03-17T20:00:09.849Z,14.30
2023-03-17T20:02:38.369Z,14.30
2023-03-17T20:05:08.475Z,14.20
2023-03-17T20:07:37.098Z,14.20
2023-03-17T20:10:07.711Z,14.20
2023-03-17T20:12:38.482Z,14.20
2023-03-17T20:15:09.318Z,14.20
2023-03-17T20:17:37.841Z,14.20
2023-03-17T20:20:09.197Z,14.10
2023-03-17T20:22:39.097Z,14.10
2023-03-17T20:25:10.353Z,14.20
2023-03-17T20:27:40.293Z,14.20
2023-03-17T20:30:12.294Z,14.20
2023-03-17T20:32:40.700Z,14.20
2023-03-17T20:35:10.057Z,14.20
2023-03-17T20:37:38.874Z,14.20
2023-03-17T20:40:09.955Z,14.20
2023-03-17T20:42:39.429Z,14.20
2023-03-17T20:45:08.872Z,14.20
2023-03-17T20:47:37.614Z,14.20
2023-03-17T20:50:08.614Z,14.30
2023-03-17T20:52:37.196Z,14.20
2023-03-17T20:55:06.392Z,14.20
2023-03-17T20:57:35.380Z,14.20
2023-03-17T21:00:06.197Z,14.20
2023-03-17T21:02:34.790Z,14.20
2023-03-17T21:05:04.530Z,14.20
2023-03-17T21:07:34.225Z,14.20
2023-03-17T21:10:02.843Z,14.20
2023-03-17T21:12:31.858Z,14.20
2023-03-17T21:15:00.814Z,14.20
2023-03-17T21:17:30.812Z,14.20
2023-03-17T21:19:59.220Z,14.20
2023-03-17T21:22:27.712Z,14.20
2023-03-17T21:24:56.001Z,14.20
2023-03-17T21:27:24.378Z,14.20
2023-03-17T21:29:53.024Z,14.20
2023-03-17T21:32:21.389Z,14.20
2023-03-17T21:34:51.028Z,14.20
2023-03-17T21:37:19.344Z,14.20
2023-03-17T21:39:47.662Z,14.20
2023-03-17T21:42:16.020Z,14.20
2023-03-17T21:44:45.815Z,14.20
2023-03-17T21:47:14.138Z,14.10
2023-03-17T21:49:42.479Z,14.10
2023-03-17T21:52:12.482Z,14.10
2023-03-17T21:54:40.761Z,14.10
2023-03-17T21:57:09.385Z,14.10
2023-03-17T21:59:38.627Z,14.10
2023-03-17T22:02:07.284Z,14.10
2023-03-17T22:04:35.601Z,14.00
2023-03-17T22:07:04.637Z,14.00
2023-03-17T22:09:34.348Z,14.00
2023-03-17T22:12:03.723Z,14.00
2023-03-17T22:14:32.199Z,14.00
2023-03-17T22:17:00.610Z,14.00
2023-03-17T22:19:29.363Z,14.00
2023-03-17T22:21:57.642Z,14.00
2023-03-17T22:24:25.948Z,13.90
2023-03-17T22:26:55.955Z,13.90
2023-03-17T22:29:24.384Z,13.90
2023-03-17T22:31:52.829Z,13.80
2023-03-17T22:34:21.100Z,13.80
2023-03-17T22:36:49.419Z,13.80
2023-03-17T22:39:17.854Z,13.80
2023-03-17T22:41:46.153Z,13.80
2023-03-17T22:44:15.897Z,13.80
2023-03-17T22:46:44.242Z,13.80
2023-03-17T22:49:12.885Z,13.70
2023-03-17T22:51:42.115Z,13.70
2023-03-17T22:54:11.397Z,13.70
2023-03-17T22:56:40.109Z,13.70
2023-03-17T22:59:08.413Z,13.70
2023-03-17T23:01:38.091Z,13.70
2023-03-17T23:04:06.561Z,13.60
2023-03-17T23:06:35.250Z,13.60
2023-03-17T23:09:03.545Z,13.60
2023-03-17T23:11:31.962Z,13.50
2023-03-17T23:14:00.363Z,13.40
2023-03-17T23:16:28.719Z,13.50
2023-03-17T23:18:58.526Z,13.40
2023-03-17T23:21:31.821Z,13.30
2023-03-17T23:24:01.042Z,13.40
2023-03-17T23:26:30.065Z,13.30
2023-03-17T23:28:58.537Z,13.30
2023-03-17T23:31:27.456Z,13.20
2023-03-17T23:33:57.099Z,13.20
2023-03-17T23:36:25.405Z,13.20
2023-03-17T23:38:53.899Z,13.10
2023-03-17T23:41:22.647Z,13.10
2023-03-17T23:43:51.058Z,13.10
2023-03-17T23:46:19.623Z,13.10
2023-03-17T23:48:48.315Z,13.00
2023-03-17T23:51:17.910Z,13.00
2023-03-17T23:53:46.671Z,13.00
2023-03-17T23:56:15.296Z,12.90
2023-03-17T23:58:43.716Z,12.90
